sensor_id;sensor_type;location;lat;lon;timestamp;P1;durP1;ratioP1;P2;durP2;ratioP2
12816;SDS011;6473;51.552;6.716;2023-08-08T00:00:53;2.50;;;2.22;;
12816;SDS011;6473;51.552;6.716;2023-08-08T00:03:20;2.97;;;2.25;;
12816;SDS011;6473;51.552;6.716;2023-08-08T00:05:47;2.42;;;2.10;;
12816;SDS011;6473;51.552;6.716;2023-08-08T00:08:14;4.72;;;2.10;;
12816;SDS011;6473;51.552;6.716;2023-08-08T00:10:41;3.58;;;2.08;;
12816;SDS011;6473;51.552;6.716;2023-08-08T00:13:08;2.75;;;2.20;;
12816;SDS011;6473;51.552;6.716;2023-08-08T00:15:36;3.58;;;2.40;;
12816;SDS011;6473;51.552;6.716;2023-08-08T00:18:03;3.55;;;2.30;;
12816;SDS011;6473;51.552;6.716;2023-08-08T00:20:30;3.15;;;2.22;;
12816;SDS011;6473;51.552;6.716;2023-08-08T00:22:57;3.03;;;2.72;;
12816;SDS011;6473;51.552;6.716;2023-08-08T00:25:24;2.65;;;2.13;;
12816;SDS011;6473;51.552;6.716;2023-08-08T00:27:51;5.20;;;2.22;;
12816;SDS011;6473;51.552;6.716;2023-08-08T00:30:18;3.83;;;2.33;;
12816;SDS011;6473;51.552;6.716;2023-08-08T00:32:46;2.50;;;2.30;;
12816;SDS011;6473;51.552;6.716;2023-08-08T00:35:13;2.95;;;2.28;;
12816;SDS011;6473;51.552;6.716;2023-08-08T00:37:40;2.58;;;2.38;;
12816;SDS011;6473;51.552;6.716;2023-08-08T00:40:07;2.67;;;2.22;;
12816;SDS011;6473;51.552;6.716;2023-08-08T00:42:34;4.30;;;2.25;;
12816;SDS011;6473;51.552;6.716;2023-08-08T00:45:02;2.17;;;2.08;;
12816;SDS011;6473;51.552;6.716;2023-08-08T00:47:29;3.50;;;2.40;;
12816;SDS011;6473;51.552;6.716;2023-08-08T00:49:59;2.42;;;2.22;;
12816;SDS011;6473;51.552;6.716;2023-08-08T00:52:27;4.10;;;2.67;;
12816;SDS011;6473;51.552;6.716;2023-08-08T00:54:54;3.70;;;2.47;;
12816;SDS011;6473;51.552;6.716;2023-08-08T00:57:21;2.30;;;2.08;;
12816;SDS011;6473;51.552;6.716;2023-08-08T00:59:50;4.93;;;2.30;;
12816;SDS011;6473;51.552;6.716;2023-08-08T01:02:17;3.47;;;2.10;;
12816;SDS011;6473;51.552;6.716;2023-08-08T03:16:18;5.75;;;2.90;;
12816;SDS011;6473;51.552;6.716;2023-08-08T03:18:46;5.68;;;3.13;;
12816;SDS011;6473;51.552;6.716;2023-08-08T03:24:02;3.47;;;3.15;;
12816;SDS011;6473;51.552;6.716;2023-08-08T03:26:30;5.70;;;3.60;;
12816;SDS011;6473;51.552;6.716;2023-08-08T03:29:11;5.70;;;3.88;;
12816;SDS011;6473;51.552;6.716;2023-08-08T03:31:44;4.65;;;3.83;;
12816;SDS011;6473;51.552;6.716;2023-08-08T03:34:12;4.03;;;3.60;;
12816;SDS011;6473;51.552;6.716;2023-08-08T03:44:46;9.27;;;4.32;;
12816;SDS011;6473;51.552;6.716;2023-08-08T03:47:14;4.30;;;3.78;;
12816;SDS011;6473;51.552;6.716;2023-08-08T03:49:44;7.22;;;4.13;;
12816;SDS011;6473;51.552;6.716;2023-08-08T03:52:11;6.82;;;4.50;;
12816;SDS011;6473;51.552;6.716;2023-08-08T03:54:38;6.85;;;4.50;;
12816;SDS011;6473;51.552;6.716;2023-08-08T03:57:05;6.90;;;4.63;;
12816;SDS011;6473;51.552;6.716;2023-08-08T03:59:32;9.18;;;4.47;;
12816;SDS011;6473;51.552;6.716;2023-08-08T04:05:00;8.35;;;4.63;;
12816;SDS011;6473;51.552;6.716;2023-08-08T04:07:27;7.38;;;4.53;;
12816;SDS011;6473;51.552;6.716;2023-08-08T04:09:53;8.68;;;4.28;;
12816;SDS011;6473;51.552;6.716;2023-08-08T04:12:20;10.10;;;4.40;;
12816;SDS011;6473;51.552;6.716;2023-08-08T04:14:47;8.27;;;5.07;;
12816;SDS011;6473;51.552;6.716;2023-08-08T04:17:14;7.00;;;4.20;;
12816;SDS011;6473;51.552;6.716;2023-08-08T04:19:42;5.45;;;4.57;;
12816;SDS011;6473;51.552;6.716;2023-08-08T04:26:14;5.15;;;4.70;;
12816;SDS011;6473;51.552;6.716;2023-08-08T04:32:42;5.40;;;4.00;;
12816;SDS011;6473;51.552;6.716;2023-08-08T06:11:07;12.60;;;10.52;;
12816;SDS011;6473;51.552;6.716;2023-08-08T06:13:34;15.45;;;10.73;;
12816;SDS011;6473;51.552;6.716;2023-08-08T06:18:49;16.17;;;10.60;;
12816;SDS011;6473;51.552;6.716;2023-08-08T06:21:17;15.57;;;10.10;;
12816;SDS011;6473;51.552;6.716;2023-08-08T06:23:44;15.15;;;10.40;;
12816;SDS011;6473;51.552;6.716;2023-08-08T06:30:13;17.67;;;10.45;;
12816;SDS011;6473;51.552;6.716;2023-08-08T06:36:04;13.25;;;9.85;;
12816;SDS011;6473;51.552;6.716;2023-08-08T06:38:31;13.13;;;10.15;;
12816;SDS011;6473;51.552;6.716;2023-08-08T06:40:59;11.85;;;10.05;;
12816;SDS011;6473;51.552;6.716;2023-08-08T06:54:23;11.60;;;9.07;;
12816;SDS011;6473;51.552;6.716;2023-08-08T07:15:11;8.85;;;6.68;;
12816;SDS011;6473;51.552;6.716;2023-08-08T07:17:38;9.65;;;7.18;;
12816;SDS011;6473;51.552;6.716;2023-08-08T07:20:07;7.82;;;6.03;;
12816;SDS011;6473;51.552;6.716;2023-08-08T07:22:38;7.40;;;5.57;;
12816;SDS011;6473;51.552;6.716;2023-08-08T07:25:06;7.25;;;5.40;;
12816;SDS011;6473;51.552;6.716;2023-08-08T07:31:31;11.02;;;6.07;;
12816;SDS011;6473;51.552;6.716;2023-08-08T07:46:33;9.70;;;4.32;;
12816;SDS011;6473;51.552;6.716;2023-08-08T07:48:59;12.50;;;3.85;;
12816;SDS011;6473;51.552;6.716;2023-08-08T07:51:28;7.15;;;3.55;;
12816;SDS011;6473;51.552;6.716;2023-08-08T07:53:55;5.70;;;3.20;;
12816;SDS011;6473;51.552;6.716;2023-08-08T07:56:22;5.30;;;3.40;;
12816;SDS011;6473;51.552;6.716;2023-08-08T07:58:49;5.40;;;3.17;;
12816;SDS011;6473;51.552;6.716;2023-08-08T08:01:17;6.90;;;3.00;;
12816;SDS011;6473;51.552;6.716;2023-08-08T08:03:44;6.47;;;2.95;;
12816;SDS011;6473;51.552;6.716;2023-08-08T08:06:11;4.40;;;2.50;;
12816;SDS011;6473;51.552;6.716;2023-08-08T08:08:38;6.32;;;2.38;;
12816;SDS011;6473;51.552;6.716;2023-08-08T08:11:05;3.55;;;2.20;;
12816;SDS011;6473;51.552;6.716;2023-08-08T08:13:32;3.95;;;2.17;;
12816;SDS011;6473;51.552;6.716;2023-08-08T08:15:59;5.07;;;2.08;;
12816;SDS011;6473;51.552;6.716;2023-08-08T08:18:27;9.98;;;3.05;;
12816;SDS011;6473;51.552;6.716;2023-08-08T08:20:56;6.10;;;2.38;;
12816;SDS011;6473;51.552;6.716;2023-08-08T08:23:23;3.35;;;2.50;;
12816;SDS011;6473;51.552;6.716;2023-08-08T08:25:50;4.65;;;2.30;;
12816;SDS011;6473;51.552;6.716;2023-08-08T08:28:17;6.88;;;2.55;;
12816;SDS011;6473;51.552;6.716;2023-08-08T08:30:44;5.10;;;2.42;;
12816;SDS011;6473;51.552;6.716;2023-08-08T08:33:11;3.38;;;2.13;;
12816;SDS011;6473;51.552;6.716;2023-08-08T08:35:39;5.22;;;2.20;;
12816;SDS011;6473;51.552;6.716;2023-08-08T08:38:06;8.75;;;2.65;;
12816;SDS011;6473;51.552;6.716;2023-08-08T08:40:36;5.45;;;2.30;;
12816;SDS011;6473;51.552;6.716;2023-08-08T08:43:04;5.95;;;2.22;;
12816;SDS011;6473;51.552;6.716;2023-08-08T08:45:33;3.47;;;2.05;;
12816;SDS011;6473;51.552;6.716;2023-08-08T08:52:04;4.00;;;2.15;;
12816;SDS011;6473;51.552;6.716;2023-08-08T08:58:19;6.50;;;2.20;;
12816;SDS011;6473;51.552;6.716;2023-08-08T09:00:54;3.38;;;2.10;;
12816;SDS011;6473;51.552;6.716;2023-08-08T09:03:23;3.55;;;2.15;;
12816;SDS011;6473;51.552;6.716;2023-08-08T09:05:50;4.63;;;2.30;;
12816;SDS011;6473;51.552;6.716;2023-08-08T09:08:21;3.78;;;2.10;;
12816;SDS011;6473;51.552;6.716;2023-08-08T09:10:48;2.85;;;1.90;;
12816;SDS011;6473;51.552;6.716;2023-08-08T09:13:26;4.70;;;1.90;;
12816;SDS011;6473;51.552;6.716;2023-08-08T09:15:53;5.82;;;2.33;;
12816;SDS011;6473;51.552;6.716;2023-08-08T09:18:22;5.43;;;2.30;;
12816;SDS011;6473;51.552;6.716;2023-08-08T09:20:49;3.60;;;2.03;;
12816;SDS011;6473;51.552;6.716;2023-08-08T09:23:17;3.97;;;2.00;;
12816;SDS011;6473;51.552;6.716;2023-08-08T09:25:45;4.10;;;2.20;;
12816;SDS011;6473;51.552;6.716;2023-08-08T09:28:12;5.57;;;2.13;;
12816;SDS011;6473;51.552;6.716;2023-08-08T09:30:40;2.40;;;1.60;;
12816;SDS011;6473;51.552;6.716;2023-08-08T09:33:07;4.80;;;1.90;;
12816;SDS011;6473;51.552;6.716;2023-08-08T09:38:32;3.72;;;2.38;;
12816;SDS011;6473;51.552;6.716;2023-08-08T09:41:00;2.92;;;1.90;;
12816;SDS011;6473;51.552;6.716;2023-08-08T09:43:27;3.92;;;2.22;;
12816;SDS011;6473;51.552;6.716;2023-08-08T09:45:54;7.05;;;2.40;;
12816;SDS011;6473;51.552;6.716;2023-08-08T09:52:09;5.05;;;2.33;;
12816;SDS011;6473;51.552;6.716;2023-08-08T09:54:37;5.60;;;1.88;;
12816;SDS011;6473;51.552;6.716;2023-08-08T09:57:07;6.82;;;2.42;;
12816;SDS011;6473;51.552;6.716;2023-08-08T09:59:34;5.10;;;2.00;;
12816;SDS011;6473;51.552;6.716;2023-08-08T10:02:01;3.65;;;1.88;;
12816;SDS011;6473;51.552;6.716;2023-08-08T10:04:29;3.47;;;1.90;;
12816;SDS011;6473;51.552;6.716;2023-08-08T10:06:55;4.03;;;2.03;;
12816;SDS011;6473;51.552;6.716;2023-08-08T10:09:22;4.35;;;2.10;;
12816;SDS011;6473;51.552;6.716;2023-08-08T10:11:51;4.50;;;2.45;;
12816;SDS011;6473;51.552;6.716;2023-08-08T10:14:36;4.80;;;2.15;;
12816;SDS011;6473;51.552;6.716;2023-08-08T10:17:05;6.82;;;2.28;;
12816;SDS011;6473;51.552;6.716;2023-08-08T10:19:33;4.95;;;2.25;;
12816;SDS011;6473;51.552;6.716;2023-08-08T10:22:03;3.03;;;2.35;;
12816;SDS011;6473;51.552;6.716;2023-08-08T10:24:32;5.45;;;2.65;;
12816;SDS011;6473;51.552;6.716;2023-08-08T10:27:01;2.55;;;2.13;;
12816;SDS011;6473;51.552;6.716;2023-08-08T10:29:29;6.93;;;2.35;;
12816;SDS011;6473;51.552;6.716;2023-08-08T10:31:59;2.63;;;2.10;;
12816;SDS011;6473;51.552;6.716;2023-08-08T10:34:36;4.55;;;2.40;;
12816;SDS011;6473;51.552;6.716;2023-08-08T10:40:07;5.60;;;2.25;;
12816;SDS011;6473;51.552;6.716;2023-08-08T10:42:43;6.85;;;2.60;;
12816;SDS011;6473;51.552;6.716;2023-08-08T10:45:18;4.32;;;2.40;;
12816;SDS011;6473;51.552;6.716;2023-08-08T10:47:46;5.20;;;2.10;;
12816;SDS011;6473;51.552;6.716;2023-08-08T10:50:14;5.35;;;1.70;;
12816;SDS011;6473;51.552;6.716;2023-08-08T10:52:52;4.40;;;1.80;;
12816;SDS011;6473;51.552;6.716;2023-08-08T10:55:21;3.95;;;1.70;;
12816;SDS011;6473;51.552;6.716;2023-08-08T10:57:53;2.75;;;1.52;;
12816;SDS011;6473;51.552;6.716;2023-08-08T11:00:25;2.15;;;1.60;;
12816;SDS011;6473;51.552;6.716;2023-08-08T11:02:56;4.68;;;1.88;;
12816;SDS011;6473;51.552;6.716;2023-08-08T11:05:24;2.67;;;1.73;;
12816;SDS011;6473;51.552;6.716;2023-08-08T11:11:17;3.17;;;1.67;;
12816;SDS011;6473;51.552;6.716;2023-08-08T11:13:44;2.80;;;1.85;;
12816;SDS011;6473;51.552;6.716;2023-08-08T11:16:11;3.42;;;1.92;;
12816;SDS011;6473;51.552;6.716;2023-08-08T11:18:39;4.03;;;1.60;;
12816;SDS011;6473;51.552;6.716;2023-08-08T11:21:11;3.15;;;1.73;;
12816;SDS011;6473;51.552;6.716;2023-08-08T11:23:38;2.88;;;2.00;;
12816;SDS011;6473;51.552;6.716;2023-08-08T11:26:05;5.03;;;1.90;;
12816;SDS011;6473;51.552;6.716;2023-08-08T11:28:32;2.22;;;2.00;;
12816;SDS011;6473;51.552;6.716;2023-08-08T11:30:59;2.65;;;1.50;;
12816;SDS011;6473;51.552;6.716;2023-08-08T11:33:26;2.80;;;1.52;;
12816;SDS011;6473;51.552;6.716;2023-08-08T11:35:55;3.72;;;2.10;;
12816;SDS011;6473;51.552;6.716;2023-08-08T11:38:22;3.03;;;1.95;;
12816;SDS011;6473;51.552;6.716;2023-08-08T11:40:50;2.97;;;1.88;;
12816;SDS011;6473;51.552;6.716;2023-08-08T11:43:20;2.33;;;1.63;;
12816;SDS011;6473;51.552;6.716;2023-08-08T11:45:48;4.38;;;1.98;;
12816;SDS011;6473;51.552;6.716;2023-08-08T11:48:20;7.57;;;2.15;;
12816;SDS011;6473;51.552;6.716;2023-08-08T11:50:47;2.10;;;1.58;;
12816;SDS011;6473;51.552;6.716;2023-08-08T11:53:15;2.92;;;1.80;;
12816;SDS011;6473;51.552;6.716;2023-08-08T11:55:42;3.63;;;1.98;;
12816;SDS011;6473;51.552;6.716;2023-08-08T11:58:11;3.28;;;1.60;;
12816;SDS011;6473;51.552;6.716;2023-08-08T12:00:38;3.83;;;2.00;;
12816;SDS011;6473;51.552;6.716;2023-08-08T12:03:06;2.05;;;1.60;;
12816;SDS011;6473;51.552;6.716;2023-08-08T12:05:36;6.18;;;1.95;;
12816;SDS011;6473;51.552;6.716;2023-08-08T12:08:04;1.98;;;1.40;;
12816;SDS011;6473;51.552;6.716;2023-08-08T12:10:32;4.05;;;1.50;;
12816;SDS011;6473;51.552;6.716;2023-08-08T12:12:59;4.03;;;1.48;;
12816;SDS011;6473;51.552;6.716;2023-08-08T12:15:28;2.17;;;1.52;;
12816;SDS011;6473;51.552;6.716;2023-08-08T12:17:55;1.77;;;1.63;;
12816;SDS011;6473;51.552;6.716;2023-08-08T12:20:26;2.55;;;1.63;;
12816;SDS011;6473;51.552;6.716;2023-08-08T12:22:54;1.85;;;1.58;;
12816;SDS011;6473;51.552;6.716;2023-08-08T12:25:20;2.42;;;1.90;;
12816;SDS011;6473;51.552;6.716;2023-08-08T12:27:49;2.65;;;1.70;;
12816;SDS011;6473;51.552;6.716;2023-08-08T12:30:16;4.03;;;1.50;;
12816;SDS011;6473;51.552;6.716;2023-08-08T12:32:43;3.58;;;2.15;;
12816;SDS011;6473;51.552;6.716;2023-08-08T12:40:50;2.65;;;1.67;;
12816;SDS011;6473;51.552;6.716;2023-08-08T12:43:19;2.45;;;1.88;;
12816;SDS011;6473;51.552;6.716;2023-08-08T12:45:46;3.15;;;1.90;;
12816;SDS011;6473;51.552;6.716;2023-08-08T12:48:13;2.83;;;1.90;;
12816;SDS011;6473;51.552;6.716;2023-08-08T12:50:40;4.03;;;2.08;;
12816;SDS011;6473;51.552;6.716;2023-08-08T12:53:07;5.28;;;2.17;;
12816;SDS011;6473;51.552;6.716;2023-08-08T12:55:39;3.33;;;1.80;;
12816;SDS011;6473;51.552;6.716;2023-08-08T12:58:06;3.38;;;1.90;;
12816;SDS011;6473;51.552;6.716;2023-08-08T13:00:35;2.03;;;1.70;;
12816;SDS011;6473;51.552;6.716;2023-08-08T13:03:02;3.33;;;1.85;;
12816;SDS011;6473;51.552;6.716;2023-08-08T13:05:29;6.18;;;2.60;;
12816;SDS011;6473;51.552;6.716;2023-08-08T13:07:56;2.10;;;1.67;;
12816;SDS011;6473;51.552;6.716;2023-08-08T13:10:23;2.38;;;1.90;;
12816;SDS011;6473;51.552;6.716;2023-08-08T13:13:03;1.92;;;1.60;;
12816;SDS011;6473;51.552;6.716;2023-08-08T13:15:30;1.80;;;1.70;;
12816;SDS011;6473;51.552;6.716;2023-08-08T13:17:59;2.10;;;1.83;;
12816;SDS011;6473;51.552;6.716;2023-08-08T13:33:02;3.63;;;2.03;;
12816;SDS011;6473;51.552;6.716;2023-08-08T13:41:00;3.63;;;1.65;;
12816;SDS011;6473;51.552;6.716;2023-08-08T13:43:27;2.55;;;1.77;;
12816;SDS011;6473;51.552;6.716;2023-08-08T13:45:55;2.58;;;1.70;;
12816;SDS011;6473;51.552;6.716;2023-08-08T14:04:08;2.90;;;1.65;;
12816;SDS011;6473;51.552;6.716;2023-08-08T14:06:34;2.47;;;1.42;;
12816;SDS011;6473;51.552;6.716;2023-08-08T14:09:01;3.25;;;1.63;;
12816;SDS011;6473;51.552;6.716;2023-08-08T14:11:30;1.70;;;1.40;;
12816;SDS011;6473;51.552;6.716;2023-08-08T14:13:57;3.85;;;1.30;;
12816;SDS011;6473;51.552;6.716;2023-08-08T14:16:24;1.63;;;1.40;;
12816;SDS011;6473;51.552;6.716;2023-08-08T14:18:50;1.30;;;1.20;;
12816;SDS011;6473;51.552;6.716;2023-08-08T14:21:19;1.63;;;1.27;;
12816;SDS011;6473;51.552;6.716;2023-08-08T14:23:45;2.45;;;1.10;;
12816;SDS011;6473;51.552;6.716;2023-08-08T14:26:15;1.20;;;1.10;;
12816;SDS011;6473;51.552;6.716;2023-08-08T14:28:42;1.88;;;1.30;;
12816;SDS011;6473;51.552;6.716;2023-08-08T14:31:09;1.67;;;1.17;;
12816;SDS011;6473;51.552;6.716;2023-08-08T14:33:36;1.58;;;0.90;;
12816;SDS011;6473;51.552;6.716;2023-08-08T14:41:37;1.15;;;1.00;;
12816;SDS011;6473;51.552;6.716;2023-08-08T14:44:04;0.85;;;0.85;;
12816;SDS011;6473;51.552;6.716;2023-08-08T14:46:31;1.17;;;0.90;;
12816;SDS011;6473;51.552;6.716;2023-08-08T14:48:59;1.17;;;0.93;;
12816;SDS011;6473;51.552;6.716;2023-08-08T14:51:25;2.78;;;1.17;;
12816;SDS011;6473;51.552;6.716;2023-08-08T14:53:53;2.22;;;0.93;;
12816;SDS011;6473;51.552;6.716;2023-08-08T14:56:21;1.45;;;0.90;;
12816;SDS011;6473;51.552;6.716;2023-08-08T14:58:48;1.23;;;0.80;;
12816;SDS011;6473;51.552;6.716;2023-08-08T15:04:14;0.85;;;0.77;;
12816;SDS011;6473;51.552;6.716;2023-08-08T15:06:40;0.73;;;0.73;;
12816;SDS011;6473;51.552;6.716;2023-08-08T15:09:07;0.75;;;0.75;;
12816;SDS011;6473;51.552;6.716;2023-08-08T15:11:36;3.70;;;0.90;;
12816;SDS011;6473;51.552;6.716;2023-08-08T15:14:02;1.20;;;0.90;;
12816;SDS011;6473;51.552;6.716;2023-08-08T15:16:37;4.50;;;1.60;;
12816;SDS011;6473;51.552;6.716;2023-08-08T15:19:04;1.77;;;0.90;;
12816;SDS011;6473;51.552;6.716;2023-08-08T15:21:32;1.60;;;0.80;;
12816;SDS011;6473;51.552;6.716;2023-08-08T15:24:17;0.70;;;0.70;;
12816;SDS011;6473;51.552;6.716;2023-08-08T15:26:45;1.15;;;0.90;;
12816;SDS011;6473;51.552;6.716;2023-08-08T15:29:12;1.52;;;0.82;;
12816;SDS011;6473;51.552;6.716;2023-08-08T15:31:39;0.95;;;0.90;;
12816;SDS011;6473;51.552;6.716;2023-08-08T15:34:06;0.70;;;0.70;;
12816;SDS011;6473;51.552;6.716;2023-08-08T15:45:26;1.92;;;0.88;;
12816;SDS011;6473;51.552;6.716;2023-08-08T15:47:53;1.40;;;1.10;;
12816;SDS011;6473;51.552;6.716;2023-08-08T15:50:19;0.70;;;0.70;;
12816;SDS011;6473;51.552;6.716;2023-08-08T15:52:46;1.77;;;0.80;;
12816;SDS011;6473;51.552;6.716;2023-08-08T15:55:13;0.82;;;0.77;;
12816;SDS011;6473;51.552;6.716;2023-08-08T15:57:40;0.80;;;0.80;;
12816;SDS011;6473;51.552;6.716;2023-08-08T16:00:07;1.52;;;1.05;;
12816;SDS011;6473;51.552;6.716;2023-08-08T16:02:40;0.63;;;0.63;;
12816;SDS011;6473;51.552;6.716;2023-08-08T16:05:08;0.90;;;0.90;;
12816;SDS011;6473;51.552;6.716;2023-08-08T16:07:35;1.23;;;0.68;;
12816;SDS011;6473;51.552;6.716;2023-08-08T16:10:02;2.22;;;0.85;;
12816;SDS011;6473;51.552;6.716;2023-08-08T16:12:30;1.95;;;0.90;;
12816;SDS011;6473;51.552;6.716;2023-08-08T16:14:58;1.73;;;0.85;;
12816;SDS011;6473;51.552;6.716;2023-08-08T16:17:25;2.25;;;0.75;;
12816;SDS011;6473;51.552;6.716;2023-08-08T16:19:53;2.47;;;1.00;;
12816;SDS011;6473;51.552;6.716;2023-08-08T16:22:20;0.90;;;0.90;;
12816;SDS011;6473;51.552;6.716;2023-08-08T16:24:46;3.10;;;1.00;;
12816;SDS011;6473;51.552;6.716;2023-08-08T16:27:13;1.10;;;0.90;;
12816;SDS011;6473;51.552;6.716;2023-08-08T16:32:33;0.98;;;0.85;;
12816;SDS011;6473;51.552;6.716;2023-08-08T16:35:01;2.92;;;0.98;;
12816;SDS011;6473;51.552;6.716;2023-08-08T16:37:29;1.17;;;0.88;;
12816;SDS011;6473;51.552;6.716;2023-08-08T16:39:56;3.20;;;0.90;;
12816;SDS011;6473;51.552;6.716;2023-08-08T16:42:24;1.50;;;1.10;;
12816;SDS011;6473;51.552;6.716;2023-08-08T16:44:51;3.63;;;1.10;;
12816;SDS011;6473;51.552;6.716;2023-08-08T16:47:18;1.63;;;1.10;;
12816;SDS011;6473;51.552;6.716;2023-08-08T16:49:47;1.08;;;0.90;;
12816;SDS011;6473;51.552;6.716;2023-08-08T16:52:15;2.30;;;0.98;;
12816;SDS011;6473;51.552;6.716;2023-08-08T16:54:42;0.80;;;0.80;;
12816;SDS011;6473;51.552;6.716;2023-08-08T16:57:09;1.67;;;0.90;;
12816;SDS011;6473;51.552;6.716;2023-08-08T16:59:36;0.80;;;0.80;;
12816;SDS011;6473;51.552;6.716;2023-08-08T17:02:03;1.20;;;1.10;;
12816;SDS011;6473;51.552;6.716;2023-08-08T17:04:30;2.35;;;1.10;;
12816;SDS011;6473;51.552;6.716;2023-08-08T17:06:57;0.90;;;0.90;;
12816;SDS011;6473;51.552;6.716;2023-08-08T17:09:26;1.50;;;1.00;;
12816;SDS011;6473;51.552;6.716;2023-08-08T17:11:52;1.08;;;0.80;;
12816;SDS011;6473;51.552;6.716;2023-08-08T17:14:19;1.00;;;0.88;;
12816;SDS011;6473;51.552;6.716;2023-08-08T17:16:46;3.15;;;1.20;;
12816;SDS011;6473;51.552;6.716;2023-08-08T17:19:14;2.17;;;0.93;;
12816;SDS011;6473;51.552;6.716;2023-08-08T17:21:42;1.60;;;0.88;;
12816;SDS011;6473;51.552;6.716;2023-08-08T17:24:09;1.73;;;0.95;;
12816;SDS011;6473;51.552;6.716;2023-08-08T17:26:37;1.20;;;1.10;;
12816;SDS011;6473;51.552;6.716;2023-08-08T17:29:04;1.25;;;1.00;;
12816;SDS011;6473;51.552;6.716;2023-08-08T17:31:31;2.63;;;1.20;;
12816;SDS011;6473;51.552;6.716;2023-08-08T17:34:00;1.10;;;0.85;;
12816;SDS011;6473;51.552;6.716;2023-08-08T17:36:30;1.65;;;1.17;;
12816;SDS011;6473;51.552;6.716;2023-08-08T17:38:58;1.25;;;1.10;;
12816;SDS011;6473;51.552;6.716;2023-08-08T17:41:30;1.10;;;1.00;;
12816;SDS011;6473;51.552;6.716;2023-08-08T17:43:58;2.90;;;1.33;;
12816;SDS011;6473;51.552;6.716;2023-08-08T17:46:25;1.02;;;1.02;;
12816;SDS011;6473;51.552;6.716;2023-08-08T17:52:01;1.63;;;1.33;;
12816;SDS011;6473;51.552;6.716;2023-08-08T17:54:28;1.38;;;1.27;;
12816;SDS011;6473;51.552;6.716;2023-08-08T17:56:56;1.50;;;1.30;;
12816;SDS011;6473;51.552;6.716;2023-08-08T17:59:25;1.30;;;1.25;;
12816;SDS011;6473;51.552;6.716;2023-08-08T18:01:53;1.85;;;1.10;;
12816;SDS011;6473;51.552;6.716;2023-08-08T18:04:21;1.55;;;1.30;;
12816;SDS011;6473;51.552;6.716;2023-08-08T18:06:47;2.22;;;1.17;;
12816;SDS011;6473;51.552;6.716;2023-08-08T18:09:18;1.83;;;1.48;;
12816;SDS011;6473;51.552;6.716;2023-08-08T18:11:46;2.88;;;1.50;;
12816;SDS011;6473;51.552;6.716;2023-08-08T18:14:13;1.70;;;1.40;;
12816;SDS011;6473;51.552;6.716;2023-08-08T18:16:42;2.15;;;1.45;;
12816;SDS011;6473;51.552;6.716;2023-08-08T18:19:09;1.70;;;1.60;;
12816;SDS011;6473;51.552;6.716;2023-08-08T18:21:36;2.50;;;1.70;;
12816;SDS011;6473;51.552;6.716;2023-08-08T18:24:04;2.20;;;1.80;;
12816;SDS011;6473;51.552;6.716;2023-08-08T18:26:31;2.13;;;1.80;;
12816;SDS011;6473;51.552;6.716;2023-08-08T18:28:58;2.65;;;1.83;;
12816;SDS011;6473;51.552;6.716;2023-08-08T18:31:25;1.55;;;1.45;;
12816;SDS011;6473;51.552;6.716;2023-08-08T18:33:57;1.55;;;1.45;;
12816;SDS011;6473;51.552;6.716;2023-08-08T18:36:25;3.53;;;2.10;;
12816;SDS011;6473;51.552;6.716;2023-08-08T18:38:52;3.03;;;2.10;;
12816;SDS011;6473;51.552;6.716;2023-08-08T18:41:25;2.65;;;1.92;;
12816;SDS011;6473;51.552;6.716;2023-08-08T18:43:52;2.00;;;1.77;;
12816;SDS011;6473;51.552;6.716;2023-08-08T18:46:19;2.38;;;2.17;;
12816;SDS011;6473;51.552;6.716;2023-08-08T18:48:47;3.38;;;2.30;;
12816;SDS011;6473;51.552;6.716;2023-08-08T18:51:15;2.80;;;2.60;;
12816;SDS011;6473;51.552;6.716;2023-08-08T18:53:42;2.67;;;2.47;;
12816;SDS011;6473;51.552;6.716;2023-08-08T18:56:10;3.40;;;3.10;;
12816;SDS011;6473;51.552;6.716;2023-08-08T18:58:39;3.65;;;3.33;;
12816;SDS011;6473;51.552;6.716;2023-08-08T19:01:06;3.55;;;3.25;;
12816;SDS011;6473;51.552;6.716;2023-08-08T19:03:33;4.30;;;4.00;;
12816;SDS011;6473;51.552;6.716;2023-08-08T19:14:00;5.00;;;4.57;;
12816;SDS011;6473;51.552;6.716;2023-08-08T20:56:29;3.88;;;3.58;;
12816;SDS011;6473;51.552;6.716;2023-08-08T20:58:56;4.10;;;3.70;;
12816;SDS011;6473;51.552;6.716;2023-08-08T21:04:10;4.00;;;3.63;;
12816;SDS011;6473;51.552;6.716;2023-08-08T21:06:37;3.75;;;3.53;;
12816;SDS011;6473;51.552;6.716;2023-08-08T21:09:04;3.40;;;3.20;;
12816;SDS011;6473;51.552;6.716;2023-08-08T21:11:32;2.88;;;2.67;;
12816;SDS011;6473;51.552;6.716;2023-08-08T21:13:59;2.97;;;2.75;;
12816;SDS011;6473;51.552;6.716;2023-08-08T21:16:26;3.05;;;2.75;;
12816;SDS011;6473;51.552;6.716;2023-08-08T21:18:52;2.85;;;2.65;;
12816;SDS011;6473;51.552;6.716;2023-08-08T21:21:24;2.47;;;2.28;;
12816;SDS011;6473;51.552;6.716;2023-08-08T21:23:51;2.55;;;2.35;;
12816;SDS011;6473;51.552;6.716;2023-08-08T21:26:19;2.72;;;2.53;;
12816;SDS011;6473;51.552;6.716;2023-08-08T21:29:01;3.00;;;2.70;;
12816;SDS011;6473;51.552;6.716;2023-08-08T21:31:28;3.33;;;2.92;;
12816;SDS011;6473;51.552;6.716;2023-08-08T21:33:55;4.10;;;3.70;;
12816;SDS011;6473;51.552;6.716;2023-08-08T21:36:22;4.60;;;3.13;;
12816;SDS011;6473;51.552;6.716;2023-08-08T21:38:48;4.13;;;3.40;;
12816;SDS011;6473;51.552;6.716;2023-08-08T21:41:15;5.90;;;4.10;;
12816;SDS011;6473;51.552;6.716;2023-08-08T21:43:42;6.50;;;4.88;;
12816;SDS011;6473;51.552;6.716;2023-08-08T21:46:10;6.68;;;4.82;;
12816;SDS011;6473;51.552;6.716;2023-08-08T21:48:37;7.15;;;4.75;;
12816;SDS011;6473;51.552;6.716;2023-08-08T21:51:04;6.05;;;5.13;;
12816;SDS011;6473;51.552;6.716;2023-08-08T21:53:31;8.00;;;5.38;;
12816;SDS011;6473;51.552;6.716;2023-08-08T21:55:58;7.38;;;5.38;;
12816;SDS011;6473;51.552;6.716;2023-08-08T21:58:26;6.47;;;4.43;;
12816;SDS011;6473;51.552;6.716;2023-08-08T22:00:52;6.47;;;4.90;;
12816;SDS011;6473;51.552;6.716;2023-08-08T22:03:21;5.07;;;4.57;;
12816;SDS011;6473;51.552;6.716;2023-08-08T22:05:48;4.60;;;4.20;;
12816;SDS011;6473;51.552;6.716;2023-08-08T22:08:15;4.32;;;3.92;;
12816;SDS011;6473;51.552;6.716;2023-08-08T22:10:42;4.03;;;3.65;;
12816;SDS011;6473;51.552;6.716;2023-08-08T22:13:09;4.43;;;4.05;;
12816;SDS011;6473;51.552;6.716;2023-08-08T22:15:36;5.53;;;4.18;;
12816;SDS011;6473;51.552;6.716;2023-08-08T22:18:08;5.93;;;4.32;;
12816;SDS011;6473;51.552;6.716;2023-08-08T22:20:38;5.03;;;4.53;;
12816;SDS011;6473;51.552;6.716;2023-08-08T22:23:05;5.28;;;4.72;;
12816;SDS011;6473;51.552;6.716;2023-08-08T22:25:32;5.25;;;4.85;;
12816;SDS011;6473;51.552;6.716;2023-08-08T22:27:59;4.88;;;4.43;;
12816;SDS011;6473;51.552;6.716;2023-08-08T22:30:26;4.65;;;4.25;;
12816;SDS011;6473;51.552;6.716;2023-08-08T22:32:53;6.68;;;4.65;;
12816;SDS011;6473;51.552;6.716;2023-08-08T22:35:20;4.40;;;4.10;;
12816;SDS011;6473;51.552;6.716;2023-08-08T22:37:49;4.53;;;4.13;;
12816;SDS011;6473;51.552;6.716;2023-08-08T22:40:16;5.05;;;3.97;;
12816;SDS011;6473;51.552;6.716;2023-08-08T22:42:43;4.38;;;3.97;;
12816;SDS011;6473;51.552;6.716;2023-08-08T22:45:10;4.00;;;3.38;;
12816;SDS011;6473;51.552;6.716;2023-08-08T22:47:37;4.95;;;4.10;;
12816;SDS011;6473;51.552;6.716;2023-08-08T22:50:05;4.93;;;3.83;;
12816;SDS011;6473;51.552;6.716;2023-08-08T22:52:33;4.10;;;3.70;;
12816;SDS011;6473;51.552;6.716;2023-08-08T22:55:02;4.30;;;3.90;;
12816;SDS011;6473;51.552;6.716;2023-08-08T22:57:29;4.03;;;3.63;;
12816;SDS011;6473;51.552;6.716;2023-08-08T22:59:56;3.60;;;3.30;;
12816;SDS011;6473;51.552;6.716;2023-08-08T23:02:23;3.83;;;3.53;;
12816;SDS011;6473;51.552;6.716;2023-08-08T23:04:50;3.53;;;3.22;;
12816;SDS011;6473;51.552;6.716;2023-08-08T23:07:17;3.53;;;3.08;;
12816;SDS011;6473;51.552;6.716;2023-08-08T23:09:44;5.05;;;3.80;;
12816;SDS011;6473;51.552;6.716;2023-08-08T23:12:15;3.55;;;3.20;;
12816;SDS011;6473;51.552;6.716;2023-08-08T23:14:41;3.88;;;3.38;;
12816;SDS011;6473;51.552;6.716;2023-08-08T23:17:08;2.08;;;1.92;;
12816;SDS011;6473;51.552;6.716;2023-08-08T23:19:35;1.52;;;1.20;;
12816;SDS011;6473;51.552;6.716;2023-08-08T23:22:02;1.17;;;1.10;;
12816;SDS011;6473;51.552;6.716;2023-08-08T23:24:29;1.02;;;0.80;;